Aérodrome :







RETROUVEZ-NOUS SUR...

 
LOGIN :

S'inscrire | Disclaimer

   EN    FR    IT 

 









Légende :    VFR   VFR Marginal   IFR   IFR Intensif   IFR Très Intensif
Visi : 
Plafond : 
>= 8 km
>= 3000ft
5 à 8 km
1000 à 3000 ft
1500m à 5 km
500 à 1000 ft
800 à 1500m
200 à 500 ft
< 800m
< 200 ft
Symboles :   Orages  Brouillard  Fortes neiges  Fortes précipitations  Vent > 20 kt






- Altitude de l'aérodrome : 565 ft
- Code IATA : STI


MDST - Cibao Int.

DERNIER METAR :
  • 260100Z 13008KT 9999 TS FEW018CB SCT020 27/24 Q1016 CB/S/W/NW

METARs EXPIRÉS :
  • 260000Z 00000KT 9999 TS FEW020CB SCT020 27/24 Q1015 CB/S/W/N

TAF TAF MDST
Valide du 26 à 00h jusqu'au 27 à 00h UTC


252200Z 2600/2700 16010KT 9999 FEW022CB FEW025
PROB30 2600/2606 8000 -TSRA FEW020CB SCT022
FIR MDCS / Amérique du Nord



MET'MAP, la Météo Aéronautique d'un coup d'oeil ! - Copyright ORBIFLY Décembre 2007 - Disclaimer

ORBIFLY MET'MAP TEAM :

Programmation & Développement : Alexandra Zaïnal
Sur une idée originale de : Baudouin d'Aumeries
Assistance à la programmation : Marc-Olivier Méhu
Soutien technique & logistique : Manuel Goepfert

Contact : metmap@orbifly.com




SOURCES & CREDITS :

   NOAA